sensor_id;sensor_type;location;lat;lon;timestamp;temperature;humidity
19805;DHT22;10062;51.052;13.756;2023-05-07T00:01:12;11.30;1.00
19805;DHT22;10062;51.052;13.756;2023-05-07T00:03:44;11.20;1.00
19805;DHT22;10062;51.052;13.756;2023-05-07T00:06:17;11.30;1.00
19805;DHT22;10062;51.052;13.756;2023-05-07T00:08:49;11.40;1.00
19805;DHT22;10062;51.052;13.756;2023-05-07T00:11:21;11.50;1.00
19805;DHT22;10062;51.052;13.756;2023-05-07T00:13:53;11.20;1.00
19805;DHT22;10062;51.052;13.756;2023-05-07T00:16:25;10.90;1.00
19805;DHT22;10062;51.052;13.756;2023-05-07T00:18:57;10.80;1.00
19805;DHT22;10062;51.052;13.756;2023-05-07T00:21:30;10.80;1.00
19805;DHT22;10062;51.052;13.756;2023-05-07T00:24:01;10.70;1.00
19805;DHT22;10062;51.052;13.756;2023-05-07T00:26:33;10.70;2.50
19805;DHT22;10062;51.052;13.756;2023-05-07T00:29:05;10.70;7.30
19805;DHT22;10062;51.052;13.756;2023-05-07T00:31:37;10.80;10.60
19805;DHT22;10062;51.052;13.756;2023-05-07T00:34:08;10.70;9.60
19805;DHT22;10062;51.052;13.756;2023-05-07T00:36:41;10.70;9.10
19805;DHT22;10062;51.052;13.756;2023-05-07T00:39:13;10.90;1.00
19805;DHT22;10062;51.052;13.756;2023-05-07T00:41:45;11.00;1.00
19805;DHT22;10062;51.052;13.756;2023-05-07T00:44:17;11.00;1.00
19805;DHT22;10062;51.052;13.756;2023-05-07T00:46:49;10.90;1.00
19805;DHT22;10062;51.052;13.756;2023-05-07T00:49:21;10.90;1.00
19805;DHT22;10062;51.052;13.756;2023-05-07T00:51:54;11.10;1.00
19805;DHT22;10062;51.052;13.756;2023-05-07T00:54:25;11.10;1.00
19805;DHT22;10062;51.052;13.756;2023-05-07T00:56:57;11.10;1.00
19805;DHT22;10062;51.052;13.756;2023-05-07T00:59:29;11.30;1.00
19805;DHT22;10062;51.052;13.756;2023-05-07T01:02:01;11.20;1.00
19805;DHT22;10062;51.052;13.756;2023-05-07T01:04:33;11.20;1.00
19805;DHT22;10062;51.052;13.756;2023-05-07T01:07:06;11.30;1.00
19805;DHT22;10062;51.052;13.756;2023-05-07T01:09:37;11.40;1.00
19805;DHT22;10062;51.052;13.756;2023-05-07T01:12:10;11.30;1.00
19805;DHT22;10062;51.052;13.756;2023-05-07T01:14:42;11.20;1.00
19805;DHT22;10062;51.052;13.756;2023-05-07T01:17:14;11.00;1.00
19805;DHT22;10062;51.052;13.756;2023-05-07T01:19:46;11.10;1.00
19805;DHT22;10062;51.052;13.756;2023-05-07T01:22:29;11.00;1.00
19805;DHT22;10062;51.052;13.756;2023-05-07T01:25:03;11.10;1.00
19805;DHT22;10062;51.052;13.756;2023-05-07T01:27:36;11.00;1.00
19805;DHT22;10062;51.052;13.756;2023-05-07T01:30:09;11.00;1.00
19805;DHT22;10062;51.052;13.756;2023-05-07T01:32:44;10.90;1.00
19805;DHT22;10062;51.052;13.756;2023-05-07T01:35:19;10.80;1.00
19805;DHT22;10062;51.052;13.756;2023-05-07T01:37:54;10.90;1.00
19805;DHT22;10062;51.052;13.756;2023-05-07T01:40:27;11.10;1.00
19805;DHT22;10062;51.052;13.756;2023-05-07T01:42:59;11.10;1.00
19805;DHT22;10062;51.052;13.756;2023-05-07T01:45:31;11.10;1.00
19805;DHT22;10062;51.052;13.756;2023-05-07T01:48:04;11.00;1.00
19805;DHT22;10062;51.052;13.756;2023-05-07T01:50:37;11.00;1.00
19805;DHT22;10062;51.052;13.756;2023-05-07T01:53:10;10.90;1.00
19805;DHT22;10062;51.052;13.756;2023-05-07T01:55:42;10.70;1.00
19805;DHT22;10062;51.052;13.756;2023-05-07T01:58:14;10.70;1.00
19805;DHT22;10062;51.052;13.756;2023-05-07T02:00:45;10.70;1.00
19805;DHT22;10062;51.052;13.756;2023-05-07T02:03:17;10.90;1.00
19805;DHT22;10062;51.052;13.756;2023-05-07T02:05:57;10.90;1.00
19805;DHT22;10062;51.052;13.756;2023-05-07T02:08:38;10.90;1.00
19805;DHT22;10062;51.052;13.756;2023-05-07T02:11:10;11.00;1.00
19805;DHT22;10062;51.052;13.756;2023-05-07T02:13:41;10.90;1.00
19805;DHT22;10062;51.052;13.756;2023-05-07T02:16:13;11.00;1.00
19805;DHT22;10062;51.052;13.756;2023-05-07T02:18:45;10.90;1.00
19805;DHT22;10062;51.052;13.756;2023-05-07T02:21:16;10.90;1.00
19805;DHT22;10062;51.052;13.756;2023-05-07T02:23:49;10.90;1.00
19805;DHT22;10062;51.052;13.756;2023-05-07T02:26:21;10.90;1.00
19805;DHT22;10062;51.052;13.756;2023-05-07T02:28:53;11.00;1.00
19805;DHT22;10062;51.052;13.756;2023-05-07T02:31:25;11.00;1.00
19805;DHT22;10062;51.052;13.756;2023-05-07T02:33:57;11.10;1.00
19805;DHT22;10062;51.052;13.756;2023-05-07T02:36:28;11.10;1.00
19805;DHT22;10062;51.052;13.756;2023-05-07T02:39:10;11.20;1.00
19805;DHT22;10062;51.052;13.756;2023-05-07T02:41:42;11.20;1.00
19805;DHT22;10062;51.052;13.756;2023-05-07T02:44:14;11.20;1.00
19805;DHT22;10062;51.052;13.756;2023-05-07T02:46:46;11.10;1.00
19805;DHT22;10062;51.052;13.756;2023-05-07T02:49:17;11.00;1.00
19805;DHT22;10062;51.052;13.756;2023-05-07T02:51:49;10.90;1.00
19805;DHT22;10062;51.052;13.756;2023-05-07T02:54:27;10.90;1.00
19805;DHT22;10062;51.052;13.756;2023-05-07T02:56:58;10.90;1.00
19805;DHT22;10062;51.052;13.756;2023-05-07T02:59:31;10.90;1.00
19805;DHT22;10062;51.052;13.756;2023-05-07T03:02:03;10.80;1.00
19805;DHT22;10062;51.052;13.756;2023-05-07T03:04:35;10.80;1.00
19805;DHT22;10062;51.052;13.756;2023-05-07T03:07:07;10.90;1.00
19805;DHT22;10062;51.052;13.756;2023-05-07T03:09:40;10.90;1.00
19805;DHT22;10062;51.052;13.756;2023-05-07T03:12:12;10.80;1.00
19805;DHT22;10062;51.052;13.756;2023-05-07T03:14:43;10.90;1.00
19805;DHT22;10062;51.052;13.756;2023-05-07T03:17:15;11.10;1.00
19805;DHT22;10062;51.052;13.756;2023-05-07T03:19:47;11.10;1.00
19805;DHT22;10062;51.052;13.756;2023-05-07T03:22:18;11.10;1.00
19805;DHT22;10062;51.052;13.756;2023-05-07T03:24:52;10.80;1.00
19805;DHT22;10062;51.052;13.756;2023-05-07T03:27:23;10.80;1.00
19805;DHT22;10062;51.052;13.756;2023-05-07T03:29:57;10.70;1.00
19805;DHT22;10062;51.052;13.756;2023-05-07T03:32:29;10.80;1.00
19805;DHT22;10062;51.052;13.756;2023-05-07T03:35:01;10.80;1.00
19805;DHT22;10062;51.052;13.756;2023-05-07T03:37:33;10.50;1.00
19805;DHT22;10062;51.052;13.756;2023-05-07T03:40:07;10.40;1.00
19805;DHT22;10062;51.052;13.756;2023-05-07T03:42:47;10.40;1.00
19805;DHT22;10062;51.052;13.756;2023-05-07T03:45:19;10.50;1.00
19805;DHT22;10062;51.052;13.756;2023-05-07T03:48:01;10.60;1.00
19805;DHT22;10062;51.052;13.756;2023-05-07T03:50:33;10.60;1.00
19805;DHT22;10062;51.052;13.756;2023-05-07T03:53:04;10.50;1.00
19805;DHT22;10062;51.052;13.756;2023-05-07T03:55:43;10.70;1.00
19805;DHT22;10062;51.052;13.756;2023-05-07T03:58:14;10.70;1.00
19805;DHT22;10062;51.052;13.756;2023-05-07T04:00:46;10.90;1.00
19805;DHT22;10062;51.052;13.756;2023-05-07T04:03:26;10.60;1.00
19805;DHT22;10062;51.052;13.756;2023-05-07T04:06:01;10.50;1.00
19805;DHT22;10062;51.052;13.756;2023-05-07T04:08:35;10.50;1.00
19805;DHT22;10062;51.052;13.756;2023-05-07T04:11:09;10.40;1.00
19805;DHT22;10062;51.052;13.756;2023-05-07T04:13:41;10.50;1.00
19805;DHT22;10062;51.052;13.756;2023-05-07T04:16:14;10.50;1.00
19805;DHT22;10062;51.052;13.756;2023-05-07T04:18:46;10.50;1.00
19805;DHT22;10062;51.052;13.756;2023-05-07T04:21:19;10.50;1.00
19805;DHT22;10062;51.052;13.756;2023-05-07T04:23:51;10.40;1.00
19805;DHT22;10062;51.052;13.756;2023-05-07T04:26:25;10.50;1.00
19805;DHT22;10062;51.052;13.756;2023-05-07T04:28:56;10.70;1.00
19805;DHT22;10062;51.052;13.756;2023-05-07T04:31:34;10.70;1.00
19805;DHT22;10062;51.052;13.756;2023-05-07T04:34:05;10.60;1.00
19805;DHT22;10062;51.052;13.756;2023-05-07T04:36:37;10.60;1.00
19805;DHT22;10062;51.052;13.756;2023-05-07T04:39:17;10.60;1.00
19805;DHT22;10062;51.052;13.756;2023-05-07T04:41:52;10.60;1.00
19805;DHT22;10062;51.052;13.756;2023-05-07T04:44:24;10.70;1.00
19805;DHT22;10062;51.052;13.756;2023-05-07T04:46:56;10.80;1.00
19805;DHT22;10062;51.052;13.756;2023-05-07T04:49:28;10.80;1.00
19805;DHT22;10062;51.052;13.756;2023-05-07T04:52:02;10.80;1.00
19805;DHT22;10062;51.052;13.756;2023-05-07T04:54:33;10.80;1.00
19805;DHT22;10062;51.052;13.756;2023-05-07T04:57:07;10.80;1.00
19805;DHT22;10062;51.052;13.756;2023-05-07T04:59:39;10.50;1.00
19805;DHT22;10062;51.052;13.756;2023-05-07T05:04:43;10.60;1.00
19805;DHT22;10062;51.052;13.756;2023-05-07T05:07:16;10.60;1.00
19805;DHT22;10062;51.052;13.756;2023-05-07T05:09:47;10.70;1.00
19805;DHT22;10062;51.052;13.756;2023-05-07T05:12:20;10.80;1.00
19805;DHT22;10062;51.052;13.756;2023-05-07T05:14:53;10.90;1.00
19805;DHT22;10062;51.052;13.756;2023-05-07T05:17:26;10.90;1.00
19805;DHT22;10062;51.052;13.756;2023-05-07T05:19:57;10.80;1.00
19805;DHT22;10062;51.052;13.756;2023-05-07T05:22:29;10.70;1.00
19805;DHT22;10062;51.052;13.756;2023-05-07T05:25:04;10.90;1.00
19805;DHT22;10062;51.052;13.756;2023-05-07T05:27:37;10.80;1.00
19805;DHT22;10062;51.052;13.756;2023-05-07T05:30:10;11.00;1.00
19805;DHT22;10062;51.052;13.756;2023-05-07T05:32:43;10.80;1.00
19805;DHT22;10062;51.052;13.756;2023-05-07T05:35:15;10.90;1.00
19805;DHT22;10062;51.052;13.756;2023-05-07T05:37:48;10.90;1.00
19805;DHT22;10062;51.052;13.756;2023-05-07T05:40:20;11.00;1.00
19805;DHT22;10062;51.052;13.756;2023-05-07T05:42:53;10.90;1.00
19805;DHT22;10062;51.052;13.756;2023-05-07T05:45:25;10.90;1.00
19805;DHT22;10062;51.052;13.756;2023-05-07T05:47:57;11.00;1.00
19805;DHT22;10062;51.052;13.756;2023-05-07T05:50:29;11.00;1.00
19805;DHT22;10062;51.052;13.756;2023-05-07T05:53:01;11.10;1.00
19805;DHT22;10062;51.052;13.756;2023-05-07T05:55:33;11.00;1.00
19805;DHT22;10062;51.052;13.756;2023-05-07T05:58:06;10.90;1.00
19805;DHT22;10062;51.052;13.756;2023-05-07T06:03:14;11.00;1.00
19805;DHT22;10062;51.052;13.756;2023-05-07T06:05:47;11.10;1.00
19805;DHT22;10062;51.052;13.756;2023-05-07T06:08:19;11.20;1.00
19805;DHT22;10062;51.052;13.756;2023-05-07T06:10:50;11.00;1.00
19805;DHT22;10062;51.052;13.756;2023-05-07T06:13:24;11.10;1.00
19805;DHT22;10062;51.052;13.756;2023-05-07T06:15:56;11.00;1.00
19805;DHT22;10062;51.052;13.756;2023-05-07T06:18:27;11.00;1.00
19805;DHT22;10062;51.052;13.756;2023-05-07T06:20:59;11.00;1.00
19805;DHT22;10062;51.052;13.756;2023-05-07T06:23:34;11.10;1.00
19805;DHT22;10062;51.052;13.756;2023-05-07T06:26:07;11.20;1.00
19805;DHT22;10062;51.052;13.756;2023-05-07T06:28:45;11.20;1.00
19805;DHT22;10062;51.052;13.756;2023-05-07T06:31:19;11.30;1.00
19805;DHT22;10062;51.052;13.756;2023-05-07T06:33:58;11.30;1.00
19805;DHT22;10062;51.052;13.756;2023-05-07T06:36:36;11.40;1.00
19805;DHT22;10062;51.052;13.756;2023-05-07T06:39:20;11.40;1.00
19805;DHT22;10062;51.052;13.756;2023-05-07T06:41:52;11.30;1.00
19805;DHT22;10062;51.052;13.756;2023-05-07T06:44:32;11.40;1.00
19805;DHT22;10062;51.052;13.756;2023-05-07T06:47:16;11.40;1.00
19805;DHT22;10062;51.052;13.756;2023-05-07T06:49:51;11.20;1.00
19805;DHT22;10062;51.052;13.756;2023-05-07T06:52:25;11.20;1.00
19805;DHT22;10062;51.052;13.756;2023-05-07T06:57:30;11.10;1.00
19805;DHT22;10062;51.052;13.756;2023-05-07T07:00:04;11.30;1.00
19805;DHT22;10062;51.052;13.756;2023-05-07T07:10:23;11.00;1.00
19805;DHT22;10062;51.052;13.756;2023-05-07T07:15:29;11.00;1.00
19805;DHT22;10062;51.052;13.756;2023-05-07T07:18:02;10.90;1.00
19805;DHT22;10062;51.052;13.756;2023-05-07T07:20:34;11.00;1.00
19805;DHT22;10062;51.052;13.756;2023-05-07T07:23:05;11.10;1.00
19805;DHT22;10062;51.052;13.756;2023-05-07T07:25:37;11.10;1.00
19805;DHT22;10062;51.052;13.756;2023-05-07T07:28:09;11.30;1.00
19805;DHT22;10062;51.052;13.756;2023-05-07T07:30:44;11.30;1.00
19805;DHT22;10062;51.052;13.756;2023-05-07T07:33:16;11.10;1.00
19805;DHT22;10062;51.052;13.756;2023-05-07T07:35:47;11.10;1.00
19805;DHT22;10062;51.052;13.756;2023-05-07T07:38:20;11.10;1.00
19805;DHT22;10062;51.052;13.756;2023-05-07T07:40:51;11.20;1.00
19805;DHT22;10062;51.052;13.756;2023-05-07T07:43:23;11.20;99.90
19805;DHT22;10062;51.052;13.756;2023-05-07T07:45:56;11.40;99.90
19805;DHT22;10062;51.052;13.756;2023-05-07T07:48:28;11.40;99.90
19805;DHT22;10062;51.052;13.756;2023-05-07T07:51:00;11.30;99.90
19805;DHT22;10062;51.052;13.756;2023-05-07T07:53:33;11.20;1.00
19805;DHT22;10062;51.052;13.756;2023-05-07T07:56:05;11.30;1.00
19805;DHT22;10062;51.052;13.756;2023-05-07T07:58:38;11.40;99.90
19805;DHT22;10062;51.052;13.756;2023-05-07T08:01:11;11.40;99.90
19805;DHT22;10062;51.052;13.756;2023-05-07T08:03:45;11.50;99.90
19805;DHT22;10062;51.052;13.756;2023-05-07T08:06:17;11.50;99.90
19805;DHT22;10062;51.052;13.756;2023-05-07T08:08:49;11.50;99.90
19805;DHT22;10062;51.052;13.756;2023-05-07T08:11:21;11.60;99.90
19805;DHT22;10062;51.052;13.756;2023-05-07T08:13:54;11.60;99.90
19805;DHT22;10062;51.052;13.756;2023-05-07T08:16:27;11.60;1.00
19805;DHT22;10062;51.052;13.756;2023-05-07T08:18:59;11.50;99.90
19805;DHT22;10062;51.052;13.756;2023-05-07T08:21:31;11.30;99.90
19805;DHT22;10062;51.052;13.756;2023-05-07T08:24:03;11.40;99.90
19805;DHT22;10062;51.052;13.756;2023-05-07T08:26:35;11.50;99.90
19805;DHT22;10062;51.052;13.756;2023-05-07T08:29:09;11.50;99.90
19805;DHT22;10062;51.052;13.756;2023-05-07T08:31:43;11.60;1.00
19805;DHT22;10062;51.052;13.756;2023-05-07T08:34:14;11.70;1.00
19805;DHT22;10062;51.052;13.756;2023-05-07T08:36:49;11.70;1.00
19805;DHT22;10062;51.052;13.756;2023-05-07T08:39:24;11.80;1.00
19805;DHT22;10062;51.052;13.756;2023-05-07T08:42:00;11.70;1.00
19805;DHT22;10062;51.052;13.756;2023-05-07T08:44:38;11.70;99.90
19805;DHT22;10062;51.052;13.756;2023-05-07T08:47:12;11.70;99.90
19805;DHT22;10062;51.052;13.756;2023-05-07T08:49:46;11.80;1.00
19805;DHT22;10062;51.052;13.756;2023-05-07T08:52:18;12.00;1.00
19805;DHT22;10062;51.052;13.756;2023-05-07T08:54:51;12.10;1.00
19805;DHT22;10062;51.052;13.756;2023-05-07T08:57:23;12.20;99.90
19805;DHT22;10062;51.052;13.756;2023-05-07T08:59:56;12.30;99.90
19805;DHT22;10062;51.052;13.756;2023-05-07T09:02:29;12.30;99.90
19805;DHT22;10062;51.052;13.756;2023-05-07T09:05:00;12.20;99.90
19805;DHT22;10062;51.052;13.756;2023-05-07T09:07:32;12.10;1.00
19805;DHT22;10062;51.052;13.756;2023-05-07T09:10:06;12.10;1.00
19805;DHT22;10062;51.052;13.756;2023-05-07T09:12:40;12.30;1.00
19805;DHT22;10062;51.052;13.756;2023-05-07T09:15:14;12.30;1.00
19805;DHT22;10062;51.052;13.756;2023-05-07T09:17:48;12.50;99.90
19805;DHT22;10062;51.052;13.756;2023-05-07T09:20:20;12.50;99.90
19805;DHT22;10062;51.052;13.756;2023-05-07T09:22:52;12.60;99.90
19805;DHT22;10062;51.052;13.756;2023-05-07T09:25:29;12.70;99.90
19805;DHT22;10062;51.052;13.756;2023-05-07T09:28:03;12.60;99.90
19805;DHT22;10062;51.052;13.756;2023-05-07T09:30:36;12.50;56.50
19805;DHT22;10062;51.052;13.756;2023-05-07T09:33:11;12.30;99.90
19805;DHT22;10062;51.052;13.756;2023-05-07T09:35:48;12.60;1.00
19805;DHT22;10062;51.052;13.756;2023-05-07T09:38:23;12.60;1.00
19805;DHT22;10062;51.052;13.756;2023-05-07T09:41:04;12.60;1.00
19805;DHT22;10062;51.052;13.756;2023-05-07T09:43:39;12.70;1.00
19805;DHT22;10062;51.052;13.756;2023-05-07T09:46:14;12.60;1.00
19805;DHT22;10062;51.052;13.756;2023-05-07T09:48:56;12.60;1.00
19805;DHT22;10062;51.052;13.756;2023-05-07T09:51:30;12.70;1.00
19805;DHT22;10062;51.052;13.756;2023-05-07T09:54:06;12.80;1.00
19805;DHT22;10062;51.052;13.756;2023-05-07T09:56:42;13.00;99.90
19805;DHT22;10062;51.052;13.756;2023-05-07T09:59:16;13.20;1.00
19805;DHT22;10062;51.052;13.756;2023-05-07T10:01:50;13.30;1.00
19805;DHT22;10062;51.052;13.756;2023-05-07T10:04:25;13.10;1.00
19805;DHT22;10062;51.052;13.756;2023-05-07T10:06:59;12.80;1.00
19805;DHT22;10062;51.052;13.756;2023-05-07T10:09:32;12.80;1.00
19805;DHT22;10062;51.052;13.756;2023-05-07T10:12:05;12.80;1.00
19805;DHT22;10062;51.052;13.756;2023-05-07T10:14:37;12.90;1.00
19805;DHT22;10062;51.052;13.756;2023-05-07T10:17:11;13.10;1.00
19805;DHT22;10062;51.052;13.756;2023-05-07T10:19:47;13.30;1.00
19805;DHT22;10062;51.052;13.756;2023-05-07T10:22:20;13.50;1.00
19805;DHT22;10062;51.052;13.756;2023-05-07T10:24:53;13.60;1.00
19805;DHT22;10062;51.052;13.756;2023-05-07T10:27:26;13.60;99.90
19805;DHT22;10062;51.052;13.756;2023-05-07T10:30:06;13.70;99.90
19805;DHT22;10062;51.052;13.756;2023-05-07T10:32:45;13.60;99.90
19805;DHT22;10062;51.052;13.756;2023-05-07T10:35:29;13.60;1.00
19805;DHT22;10062;51.052;13.756;2023-05-07T10:38:04;13.60;1.00
19805;DHT22;10062;51.052;13.756;2023-05-07T10:40:38;13.60;99.90
19805;DHT22;10062;51.052;13.756;2023-05-07T10:43:12;13.50;99.90
19805;DHT22;10062;51.052;13.756;2023-05-07T10:46:11;13.60;1.00
19805;DHT22;10062;51.052;13.756;2023-05-07T10:49:07;13.60;1.00
19805;DHT22;10062;51.052;13.756;2023-05-07T10:52:14;13.80;1.00
19805;DHT22;10062;51.052;13.756;2023-05-07T10:55:19;14.00;99.90
19805;DHT22;10062;51.052;13.756;2023-05-07T10:58:22;13.90;1.00
19805;DHT22;10062;51.052;13.756;2023-05-07T11:00:59;14.20;99.90
19805;DHT22;10062;51.052;13.756;2023-05-07T11:04:14;14.50;1.00
19805;DHT22;10062;51.052;13.756;2023-05-07T11:10:00;14.90;99.90
19805;DHT22;10062;51.052;13.756;2023-05-07T11:12:54;15.00;1.00
19805;DHT22;10062;51.052;13.756;2023-05-07T11:15:46;14.90;99.90
19805;DHT22;10062;51.052;13.756;2023-05-07T11:18:46;14.70;1.00
19805;DHT22;10062;51.052;13.756;2023-05-07T11:21:35;14.60;1.00
19805;DHT22;10062;51.052;13.756;2023-05-07T11:24:16;14.50;1.00
19805;DHT22;10062;51.052;13.756;2023-05-07T11:26:58;14.40;1.00
19805;DHT22;10062;51.052;13.756;2023-05-07T11:29:31;14.30;1.00
19805;DHT22;10062;51.052;13.756;2023-05-07T11:32:09;14.20;1.00
19805;DHT22;10062;51.052;13.756;2023-05-07T11:34:47;14.20;1.00
19805;DHT22;10062;51.052;13.756;2023-05-07T11:37:23;14.20;32.80
19805;DHT22;10062;51.052;13.756;2023-05-07T11:40:04;14.10;1.00
19805;DHT22;10062;51.052;13.756;2023-05-07T11:42:39;14.20;99.90
19805;DHT22;10062;51.052;13.756;2023-05-07T11:45:11;14.20;1.00
19805;DHT22;10062;51.052;13.756;2023-05-07T11:47:43;14.30;1.00
19805;DHT22;10062;51.052;13.756;2023-05-07T11:50:15;14.40;1.00
19805;DHT22;10062;51.052;13.756;2023-05-07T11:52:51;14.30;1.00
19805;DHT22;10062;51.052;13.756;2023-05-07T11:55:24;14.30;1.00
19805;DHT22;10062;51.052;13.756;2023-05-07T11:57:57;14.30;99.90
19805;DHT22;10062;51.052;13.756;2023-05-07T12:00:29;14.30;99.90
19805;DHT22;10062;51.052;13.756;2023-05-07T12:03:03;14.30;1.00
19805;DHT22;10062;51.052;13.756;2023-05-07T12:05:35;14.40;1.00
19805;DHT22;10062;51.052;13.756;2023-05-07T12:08:07;14.40;1.00
19805;DHT22;10062;51.052;13.756;2023-05-07T12:10:40;14.40;1.00
19805;DHT22;10062;51.052;13.756;2023-05-07T12:13:17;14.50;99.90
19805;DHT22;10062;51.052;13.756;2023-05-07T12:15:51;14.60;1.00
19805;DHT22;10062;51.052;13.756;2023-05-07T12:18:23;14.70;99.90
19805;DHT22;10062;51.052;13.756;2023-05-07T12:23:27;15.10;1.00
19805;DHT22;10062;51.052;13.756;2023-05-07T12:25:59;15.30;1.00
19805;DHT22;10062;51.052;13.756;2023-05-07T12:28:38;15.40;1.00
19805;DHT22;10062;51.052;13.756;2023-05-07T12:31:10;15.30;99.90
19805;DHT22;10062;51.052;13.756;2023-05-07T12:33:42;15.30;99.90
19805;DHT22;10062;51.052;13.756;2023-05-07T12:36:14;15.20;99.90
19805;DHT22;10062;51.052;13.756;2023-05-07T12:38:45;15.00;99.90
19805;DHT22;10062;51.052;13.756;2023-05-07T12:41:20;14.90;1.00
19805;DHT22;10062;51.052;13.756;2023-05-07T12:43:57;14.90;1.00
19805;DHT22;10062;51.052;13.756;2023-05-07T12:46:29;14.90;1.00
19805;DHT22;10062;51.052;13.756;2023-05-07T12:51:34;15.20;1.00
19805;DHT22;10062;51.052;13.756;2023-05-07T12:54:06;15.40;99.90
19805;DHT22;10062;51.052;13.756;2023-05-07T12:56:40;15.70;99.90
19805;DHT22;10062;51.052;13.756;2023-05-07T12:59:13;15.80;1.00
19805;DHT22;10062;51.052;13.756;2023-05-07T13:04:17;15.80;1.00
19805;DHT22;10062;51.052;13.756;2023-05-07T13:06:49;16.00;1.00
19805;DHT22;10062;51.052;13.756;2023-05-07T13:09:20;16.00;1.00
19805;DHT22;10062;51.052;13.756;2023-05-07T13:11:52;16.00;1.00
19805;DHT22;10062;51.052;13.756;2023-05-07T13:14:25;15.90;1.00
19805;DHT22;10062;51.052;13.756;2023-05-07T13:16:57;15.80;1.00
19805;DHT22;10062;51.052;13.756;2023-05-07T13:19:28;15.90;1.00
19805;DHT22;10062;51.052;13.756;2023-05-07T13:22:00;15.90;1.00
19805;DHT22;10062;51.052;13.756;2023-05-07T13:24:31;15.80;1.00
19805;DHT22;10062;51.052;13.756;2023-05-07T13:27:03;15.90;1.00
19805;DHT22;10062;51.052;13.756;2023-05-07T13:29:36;15.80;1.00
19805;DHT22;10062;51.052;13.756;2023-05-07T13:34:40;15.70;1.00
19805;DHT22;10062;51.052;13.756;2023-05-07T13:37:11;15.70;1.00
19805;DHT22;10062;51.052;13.756;2023-05-07T13:39:43;15.60;1.00
19805;DHT22;10062;51.052;13.756;2023-05-07T13:42:16;15.60;1.00
19805;DHT22;10062;51.052;13.756;2023-05-07T13:44:49;15.70;1.00
19805;DHT22;10062;51.052;13.756;2023-05-07T13:47:21;15.60;1.00
19805;DHT22;10062;51.052;13.756;2023-05-07T13:49:52;15.80;1.00
19805;DHT22;10062;51.052;13.756;2023-05-07T13:52:24;15.70;1.00
19805;DHT22;10062;51.052;13.756;2023-05-07T13:54:56;15.80;1.00
19805;DHT22;10062;51.052;13.756;2023-05-07T13:57:29;15.80;1.00
19805;DHT22;10062;51.052;13.756;2023-05-07T14:00:02;15.90;1.00
19805;DHT22;10062;51.052;13.756;2023-05-07T14:02:45;15.90;1.00
19805;DHT22;10062;51.052;13.756;2023-05-07T14:05:17;15.80;1.00
19805;DHT22;10062;51.052;13.756;2023-05-07T14:07:50;15.80;1.00
19805;DHT22;10062;51.052;13.756;2023-05-07T14:10:22;15.70;1.00
19805;DHT22;10062;51.052;13.756;2023-05-07T14:12:54;15.70;1.00
19805;DHT22;10062;51.052;13.756;2023-05-07T14:15:27;15.70;1.00
19805;DHT22;10062;51.052;13.756;2023-05-07T14:17:59;15.50;1.00
19805;DHT22;10062;51.052;13.756;2023-05-07T14:23:07;15.50;1.00
19805;DHT22;10062;51.052;13.756;2023-05-07T14:25:38;15.40;1.00
19805;DHT22;10062;51.052;13.756;2023-05-07T14:28:10;15.40;1.00
19805;DHT22;10062;51.052;13.756;2023-05-07T14:30:43;15.40;1.00
19805;DHT22;10062;51.052;13.756;2023-05-07T14:33:15;15.50;1.00
19805;DHT22;10062;51.052;13.756;2023-05-07T14:35:46;15.70;1.00
19805;DHT22;10062;51.052;13.756;2023-05-07T14:38:20;15.70;1.00
19805;DHT22;10062;51.052;13.756;2023-05-07T14:40:51;15.90;1.00
19805;DHT22;10062;51.052;13.756;2023-05-07T14:43:26;15.80;1.00
19805;DHT22;10062;51.052;13.756;2023-05-07T14:45:59;15.90;1.00
19805;DHT22;10062;51.052;13.756;2023-05-07T14:51:02;15.90;99.90
19805;DHT22;10062;51.052;13.756;2023-05-07T14:53:34;15.90;1.00
19805;DHT22;10062;51.052;13.756;2023-05-07T14:56:06;15.90;99.90
19805;DHT22;10062;51.052;13.756;2023-05-07T14:58:37;15.90;1.00
19805;DHT22;10062;51.052;13.756;2023-05-07T15:01:10;15.80;1.00
19805;DHT22;10062;51.052;13.756;2023-05-07T15:03:42;15.70;1.00
19805;DHT22;10062;51.052;13.756;2023-05-07T15:06:14;15.60;1.00
19805;DHT22;10062;51.052;13.756;2023-05-07T15:08:46;15.30;1.00
19805;DHT22;10062;51.052;13.756;2023-05-07T15:11:18;15.20;1.00
19805;DHT22;10062;51.052;13.756;2023-05-07T15:13:50;15.20;1.00
19805;DHT22;10062;51.052;13.756;2023-05-07T15:16:23;15.20;1.00
19805;DHT22;10062;51.052;13.756;2023-05-07T15:18:55;15.30;1.00
19805;DHT22;10062;51.052;13.756;2023-05-07T15:21:27;15.30;1.00
19805;DHT22;10062;51.052;13.756;2023-05-07T15:23:59;15.30;1.00
19805;DHT22;10062;51.052;13.756;2023-05-07T15:26:30;15.20;1.00
19805;DHT22;10062;51.052;13.756;2023-05-07T15:29:02;15.10;1.00
19805;DHT22;10062;51.052;13.756;2023-05-07T15:31:39;15.00;1.00
19805;DHT22;10062;51.052;13.756;2023-05-07T15:34:11;15.00;1.00
19805;DHT22;10062;51.052;13.756;2023-05-07T15:36:45;14.90;99.90
19805;DHT22;10062;51.052;13.756;2023-05-07T15:39:16;14.70;99.90
19805;DHT22;10062;51.052;13.756;2023-05-07T15:41:48;14.70;1.00
19805;DHT22;10062;51.052;13.756;2023-05-07T15:44:20;14.60;99.90
19805;DHT22;10062;51.052;13.756;2023-05-07T15:46:53;14.60;99.90
19805;DHT22;10062;51.052;13.756;2023-05-07T15:49:24;14.60;99.90
19805;DHT22;10062;51.052;13.756;2023-05-07T15:51:56;14.60;1.00
19805;DHT22;10062;51.052;13.756;2023-05-07T15:54:28;14.60;1.00
19805;DHT22;10062;51.052;13.756;2023-05-07T15:56:59;14.70;1.00
19805;DHT22;10062;51.052;13.756;2023-05-07T15:59:31;14.50;1.00
19805;DHT22;10062;51.052;13.756;2023-05-07T16:02:05;14.60;1.00
19805;DHT22;10062;51.052;13.756;2023-05-07T16:07:09;14.30;1.00
19805;DHT22;10062;51.052;13.756;2023-05-07T16:09:41;14.30;99.90
19805;DHT22;10062;51.052;13.756;2023-05-07T16:12:12;14.40;1.00
19805;DHT22;10062;51.052;13.756;2023-05-07T16:14:44;14.40;1.00
19805;DHT22;10062;51.052;13.756;2023-05-07T16:17:17;14.40;1.00
19805;DHT22;10062;51.052;13.756;2023-05-07T16:19:49;14.40;1.00
19805;DHT22;10062;51.052;13.756;2023-05-07T16:22:21;14.50;1.00
19805;DHT22;10062;51.052;13.756;2023-05-07T16:24:55;14.50;1.00
19805;DHT22;10062;51.052;13.756;2023-05-07T16:27:26;14.40;1.00
19805;DHT22;10062;51.052;13.756;2023-05-07T16:29:58;14.40;1.00
19805;DHT22;10062;51.052;13.756;2023-05-07T16:32:31;14.40;1.00
19805;DHT22;10062;51.052;13.756;2023-05-07T16:35:03;14.20;1.00
19805;DHT22;10062;51.052;13.756;2023-05-07T16:37:35;14.10;1.00
19805;DHT22;10062;51.052;13.756;2023-05-07T16:40:10;14.10;1.00
19805;DHT22;10062;51.052;13.756;2023-05-07T16:42:42;13.90;1.00
19805;DHT22;10062;51.052;13.756;2023-05-07T16:45:14;13.80;99.90
19805;DHT22;10062;51.052;13.756;2023-05-07T16:47:47;13.40;1.00